Time;durP1;ratioP1;P1;durP2;ratioP2;P2;SDS_P1;SDS_P2;PMS_P1;PMS_P2;Temp;Humidity;BMP_temperature;BMP_pressure;BME280_temperature;BME280_humidity;BME280_pressure;Samples;Min_cycle;Max_cycle;Signal;HPM_P1;HPM_P2
2022/03/05 00:01:56;;;;;;;13.10;7.20;;;;;;;-2.20;81.82;101452.47;5000385;28;20124;-71
2022/03/05 00:04:21;;;;;;;15.07;6.63;;;;;;;-2.25;80.92;101452.19;4999700;28;20068;-71
2022/03/05 00:06:49;;;;;;;14.00;6.93;;;;;;;-2.25;82.17;101459.94;5013630;28;20039;-71
2022/03/05 00:09:15;;;;;;;10.07;5.90;;;;;;;-2.27;81.94;101447.72;4997711;28;20119;-71
2022/03/05 00:11:40;;;;;;;11.03;6.03;;;;;;;-2.30;81.38;101448.44;4999919;28;20075;-71
2022/03/05 00:14:06;;;;;;;11.43;6.57;;;;;;;-2.31;81.93;101451.78;4997625;28;20041;-71
2022/03/05 00:16:31;;;;;;;10.03;4.80;;;;;;;-2.43;81.37;101449.38;4999022;28;20565;-72
2022/03/05 00:18:56;;;;;;;12.00;5.83;;;;;;;-2.49;81.72;101453.25;5001069;28;20069;-72
2022/03/05 00:21:22;;;;;;;10.17;5.83;;;;;;;-2.51;81.97;101454.88;5000439;28;20066;-71
2022/03/05 00:23:47;;;;;;;15.13;7.20;;;;;;;-2.53;82.33;101456.47;5003493;28;20038;-71
2022/03/05 00:26:13;;;;;;;12.03;6.53;;;;;;;-2.53;82.41;101451.31;5001295;28;20038;-71
2022/03/05 00:28:38;;;;;;;13.83;7.07;;;;;;;-2.54;82.17;101446.91;5000224;28;20125;-71
2022/03/05 00:31:03;;;;;;;11.23;6.20;;;;;;;-2.60;82.62;101443.97;5000914;28;20030;-71
2022/03/05 00:33:29;;;;;;;12.23;6.57;;;;;;;-2.68;82.37;101446.09;5003415;28;20495;-71
2022/03/05 00:35:54;;;;;;;11.03;6.27;;;;;;;-2.69;83.28;101452.94;5000565;28;20479;-72
2022/03/05 00:38:21;;;;;;;12.70;7.00;;;;;;;-2.74;82.94;101461.22;5002363;28;20433;-72
2022/03/05 00:40:46;;;;;;;12.93;6.63;;;;;;;-2.77;82.65;101454.16;5002078;28;20125;-72
2022/03/05 00:43:12;;;;;;;10.33;5.97;;;;;;;-2.76;83.34;101449.88;5000241;28;20180;-72
2022/03/05 00:45:38;;;;;;;11.40;6.57;;;;;;;-2.77;82.87;101455.88;5003229;28;20041;-72
2022/03/05 00:48:03;;;;;;;13.03;6.23;;;;;;;-2.76;82.96;101458.53;5012733;28;20042;-72
2022/03/05 00:50:29;;;;;;;13.50;7.33;;;;;;;-2.76;83.01;101455.06;5001706;28;20046;-71
2022/03/05 00:52:54;;;;;;;13.40;7.40;;;;;;;-2.78;83.20;101459.22;5000598;28;20050;-72
2022/03/05 00:55:20;;;;;;;11.40;7.03;;;;;;;-2.81;82.58;101461.63;5003153;28;20026;-71
2022/03/05 00:57:45;;;;;;;13.67;7.30;;;;;;;-2.84;83.29;101458.84;4999097;28;20034;-71
2022/03/05 01:00:11;;;;;;;12.07;7.10;;;;;;;-2.85;82.91;101462.25;5001121;28;20030;-72
2022/03/05 01:02:37;;;;;;;11.20;6.10;;;;;;;-2.87;83.11;101455.28;5000665;28;20045;-72
2022/03/05 01:05:04;;;;;;;10.70;6.57;;;;;;;-2.85;83.80;101450.22;5002946;28;20057;-72
2022/03/05 01:07:29;;;;;;;14.10;6.83;;;;;;;-2.86;84.35;101461.31;5016809;28;20076;-72
2022/03/05 01:09:54;;;;;;;11.00;6.20;;;;;;;-2.84;84.56;101459.75;5003628;28;20087;-72
2022/03/05 01:12:22;;;;;;;11.83;5.93;;;;;;;-2.81;84.28;101451.28;5000757;28;20026;-72
2022/03/05 01:14:47;;;;;;;11.13;7.00;;;;;;;-2.78;83.82;101454.06;5002496;28;20041;-72
2022/03/05 01:17:13;;;;;;;12.47;6.67;;;;;;;-2.72;83.88;101454.47;5000876;28;20110;-72
2022/03/05 01:19:38;;;;;;;10.77;6.30;;;;;;;-2.65;84.27;101454.03;5002801;28;20041;-72
2022/03/05 01:22:04;;;;;;;12.17;6.10;;;;;;;-2.56;84.17;101458.88;5019946;28;20110;-72
2022/03/05 01:24:29;;;;;;;12.57;6.60;;;;;;;-2.53;83.69;101454.78;5002709;28;20061;-71
2022/03/05 01:26:54;;;;;;;9.83;6.97;;;;;;;-2.49;83.84;101459.34;5006073;28;20059;-71
2022/03/05 01:29:20;;;;;;;9.53;5.43;;;;;;;-2.50;83.62;101457.56;5001516;28;20041;-72
2022/03/05 01:31:45;;;;;;;10.73;6.77;;;;;;;-2.49;83.25;101459.34;5015450;28;20026;-72
2022/03/05 01:34:10;;;;;;;11.23;6.13;;;;;;;-2.47;84.44;101459.44;5012110;28;20669;-72
2022/03/05 01:36:36;;;;;;;13.87;6.60;;;;;;;-2.47;83.75;101454.25;4999917;28;20112;-72
2022/03/05 01:39:01;;;;;;;12.27;5.97;;;;;;;-2.46;83.21;101456.06;5002396;28;20099;-71
2022/03/05 01:41:27;;;;;;;9.93;5.47;;;;;;;-2.45;83.15;101450.09;4999365;28;20042;-71
2022/03/05 01:43:53;;;;;;;10.40;5.70;;;;;;;-2.39;83.47;101450.44;5006445;28;20039;-71
2022/03/05 01:46:35;;;;;;;11.07;6.30;;;;;;;-2.25;83.24;101446.13;5023179;28;20112;-71
2022/03/05 01:49:03;;;;;;;11.77;5.72;;;;;;;-2.16;83.28;101438.91;4999295;28;20069;-71
2022/03/05 01:51:28;;;;;;;13.40;6.43;;;;;;;-2.08;83.91;101431.59;4999277;28;20038;-72
2022/03/05 01:53:54;;;;;;;10.13;6.13;;;;;;;-1.99;83.04;101434.75;5003957;28;20025;-71
2022/03/05 01:56:21;;;;;;;9.93;5.47;;;;;;;-1.88;83.69;101425.91;5009567;28;20065;-71
2022/03/05 01:58:48;;;;;;;11.20;6.30;;;;;;;-1.74;83.11;101429.28;5001613;28;20030;-71
2022/03/05 02:01:13;;;;;;;10.77;5.93;;;;;;;-1.62;83.44;101423.94;4999100;28;20073;-73
2022/03/05 02:03:40;;;;;;;13.30;6.90;;;;;;;-1.51;83.44;101422.84;5001879;28;20066;-73
2022/03/05 02:06:06;;;;;;;11.23;6.27;;;;;;;-1.42;82.75;101425.94;5000777;28;20091;-73
2022/03/05 02:08:31;;;;;;;10.03;5.40;;;;;;;-1.50;81.49;101416.84;5000707;28;20438;-72
2022/03/05 02:10:56;;;;;;;10.93;5.87;;;;;;;-1.57;83.04;101417.31;5000812;28;20037;-71
2022/03/05 02:13:22;;;;;;;10.80;6.03;;;;;;;-1.52;82.91;101413.28;5019922;28;20053;-71
2022/03/05 02:15:53;;;;;;;11.63;6.33;;;;;;;-1.44;82.49;101418.88;5025659;28;20033;-71
2022/03/05 02:18:18;;;;;;;14.57;8.47;;;;;;;-1.34;82.02;101422.09;4998717;28;20129;-71
2022/03/05 02:20:44;;;;;;;12.17;6.23;;;;;;;-1.30;82.09;101424.88;4999004;28;20066;-71
2022/03/05 02:23:10;;;;;;;9.87;6.13;;;;;;;-1.24;82.90;101422.59;5003358;28;20050;-72
2022/03/05 02:25:35;;;;;;;13.03;6.70;;;;;;;-1.19;81.98;101418.56;4999359;28;20122;-72
2022/03/05 02:28:01;;;;;;;11.03;6.07;;;;;;;-1.19;81.80;101426.34;5000356;28;20065;-71
2022/03/05 02:30:27;;;;;;;11.53;6.17;;;;;;;-1.15;82.36;101420.53;5000975;28;20038;-71
2022/03/05 02:32:52;;;;;;;11.47;5.93;;;;;;;-1.19;81.50;101432.41;4998205;28;20046;-72
2022/03/05 02:35:18;;;;;;;13.37;6.23;;;;;;;-1.29;82.59;101424.03;5001638;28;20080;-72
2022/03/05 02:37:43;;;;;;;10.07;6.27;;;;;;;-1.34;82.89;101416.00;4999470;28;20062;-71
2022/03/05 02:40:09;;;;;;;12.00;5.93;;;;;;;-1.36;82.87;101421.13;4999338;28;20104;-72
2022/03/05 02:42:35;;;;;;;9.27;4.93;;;;;;;-1.31;82.78;101418.78;5000149;28;20054;-72
2022/03/05 02:45:00;;;;;;;11.60;6.33;;;;;;;-1.33;82.58;101416.09;4997230;28;20034;-72
2022/03/05 02:47:26;;;;;;;12.10;5.87;;;;;;;-1.30;82.33;101404.13;4998234;28;20077;-72
2022/03/05 02:49:51;;;;;;;8.87;5.60;;;;;;;-1.27;83.02;101404.31;5000272;28;20041;-72
2022/03/05 02:52:16;;;;;;;7.47;4.70;;;;;;;-1.19;82.23;101405.63;5000165;28;20073;-72
2022/03/05 02:54:42;;;;;;;11.33;5.53;;;;;;;-1.11;82.41;101405.22;4998453;28;20076;-72
2022/03/05 02:57:07;;;;;;;9.57;5.63;;;;;;;-1.07;82.29;101405.38;5001253;28;20030;-72
2022/03/05 02:59:32;;;;;;;11.40;5.97;;;;;;;-1.00;81.81;101403.22;4998922;28;20038;-72
2022/03/05 03:01:58;;;;;;;11.47;5.83;;;;;;;-0.92;82.27;101401.97;4999078;28;20453;-72
2022/03/05 03:04:23;;;;;;;11.43;6.03;;;;;;;-0.91;82.22;101395.94;5000543;28;20045;-71
2022/03/05 03:06:50;;;;;;;9.87;5.90;;;;;;;-0.90;81.87;101400.31;4998028;28;20393;-72
2022/03/05 03:09:16;;;;;;;10.93;5.70;;;;;;;-0.91;82.21;101408.91;4999433;28;20133;-72
2022/03/05 03:11:41;;;;;;;10.20;5.67;;;;;;;-0.96;82.22;101402.59;4999046;28;20121;-71
2022/03/05 03:14:06;;;;;;;12.80;6.90;;;;;;;-0.95;81.84;101406.94;5007358;28;20041;-71
2022/03/05 03:16:32;;;;;;;8.30;5.63;;;;;;;-0.97;81.76;101406.00;4999115;28;20557;-71
2022/03/05 03:18:58;;;;;;;12.30;6.97;;;;;;;-1.07;81.94;101414.06;4997863;28;20042;-71
2022/03/05 03:21:23;;;;;;;10.27;5.50;;;;;;;-1.03;82.28;101408.22;4999691;28;20083;-71
2022/03/05 03:23:48;;;;;;;12.07;6.20;;;;;;;-1.02;82.58;101404.84;4999512;28;20492;-71
2022/03/05 03:26:14;;;;;;;8.93;5.23;;;;;;;-1.08;81.75;101404.50;5001580;28;20488;-72
2022/03/05 03:28:39;;;;;;;8.50;5.27;;;;;;;-1.13;81.82;101421.50;5001248;28;20056;-71
2022/03/05 03:31:04;;;;;;;10.57;5.07;;;;;;;-1.17;81.46;101406.59;4997764;28;20034;-71
2022/03/05 03:33:30;;;;;;;11.10;5.33;;;;;;;-1.29;81.50;101413.69;4999566;28;20384;-71
2022/03/05 03:35:55;;;;;;;8.47;5.30;;;;;;;-1.41;82.06;101413.91;4999504;28;20411;-71
2022/03/05 03:38:20;;;;;;;11.77;6.10;;;;;;;-1.45;81.48;101415.41;5000971;28;20080;-72
2022/03/05 03:40:46;;;;;;;10.33;5.97;;;;;;;-1.50;82.10;101418.56;5000678;28;20056;-71
2022/03/05 03:43:11;;;;;;;9.10;5.90;;;;;;;-1.54;82.23;101417.50;4997939;28;20046;-71
2022/03/05 03:45:37;;;;;;;10.20;6.23;;;;;;;-1.59;81.79;101419.81;4999205;28;20045;-71
2022/03/05 03:48:02;;;;;;;12.20;6.33;;;;;;;-1.61;82.02;101423.13;4996515;28;20092;-71
2022/03/05 03:50:28;;;;;;;12.77;6.70;;;;;;;-1.71;82.12;101421.69;5000465;28;20075;-71
2022/03/05 03:52:54;;;;;;;10.67;5.87;;;;;;;-1.75;82.09;101427.50;4996873;28;20041;-72
2022/03/05 03:55:21;;;;;;;10.77;6.60;;;;;;;-1.81;81.96;101425.47;4999381;28;20038;-71
2022/03/05 03:57:47;;;;;;;11.50;6.37;;;;;;;-1.90;82.06;101424.91;5011311;28;20064;-71
2022/03/05 04:00:15;;;;;;;9.97;5.93;;;;;;;-1.92;82.74;101423.03;5000221;28;20034;-71
2022/03/05 04:02:40;;;;;;;11.30;6.43;;;;;;;-2.02;82.87;101427.69;4997207;28;20087;-72
2022/03/05 04:05:06;;;;;;;8.83;5.60;;;;;;;-2.08;82.92;101421.25;4999092;28;20045;-71
2022/03/05 04:10:16;;;;;;;11.77;6.73;;;;;;;-2.21;82.35;101420.50;4998857;28;20034;-71
2022/03/05 04:12:42;;;;;;;7.80;5.33;;;;;;;-2.25;82.81;101417.69;4997426;28;20531;-71
2022/03/05 04:15:08;;;;;;;10.47;5.80;;;;;;;-2.34;83.30;101420.59;4999992;28;20045;-71
2022/03/05 04:17:34;;;;;;;13.67;7.17;;;;;;;-2.42;83.56;101421.81;5001584;28;20057;-71
2022/03/05 04:19:59;;;;;;;12.60;6.60;;;;;;;-2.49;83.27;101433.50;4999601;28;20065;-71
2022/03/05 04:22:25;;;;;;;12.30;6.50;;;;;;;-2.55;83.77;101432.22;5000396;28;20117;-71
2022/03/05 04:24:50;;;;;;;10.80;5.93;;;;;;;-2.63;83.37;101423.13;4997154;28;20488;-72
2022/03/05 04:27:16;;;;;;;10.97;5.70;;;;;;;-2.76;83.95;101424.06;4996976;28;20050;-71
2022/03/05 04:29:41;;;;;;;11.47;5.53;;;;;;;-2.87;84.48;101426.84;4999062;28;20087;-71
2022/03/05 04:32:07;;;;;;;8.40;4.93;;;;;;;-2.92;84.37;101428.25;4998128;28;20038;-72
2022/03/05 04:34:33;;;;;;;10.30;5.30;;;;;;;-2.97;83.93;101429.66;4997495;28;20031;-71
2022/03/05 04:36:58;;;;;;;10.97;5.50;;;;;;;-2.98;84.66;101429.59;4999841;28;20045;-71
2022/03/05 04:39:24;;;;;;;10.13;5.53;;;;;;;-3.08;84.19;101430.69;4997305;28;20037;-72
2022/03/05 04:41:49;;;;;;;11.43;5.30;;;;;;;-3.16;84.55;101421.56;4998051;28;20045;-72
2022/03/05 04:44:15;;;;;;;10.67;5.43;;;;;;;-3.13;84.84;101432.09;4994270;28;20031;-72
2022/03/05 04:46:41;;;;;;;8.60;4.73;;;;;;;-3.19;85.21;101430.00;4997716;28;20117;-72
2022/03/05 04:49:06;;;;;;;13.93;7.50;;;;;;;-3.25;84.66;101432.19;4996693;28;20071;-72
2022/03/05 04:51:32;;;;;;;10.87;5.50;;;;;;;-3.27;85.04;101440.66;4998538;28;20034;-74
2022/03/05 04:53:58;;;;;;;11.03;5.43;;;;;;;-3.32;84.64;101432.63;4998434;28;20037;-71
2022/03/05 04:56:23;;;;;;;13.53;5.30;;;;;;;-3.39;85.39;101438.16;4995924;28;20545;-72
2022/03/05 04:58:48;;;;;;;11.03;5.77;;;;;;;-3.45;85.36;101441.25;5002203;28;20038;-71
2022/03/05 05:01:14;;;;;;;12.40;6.10;;;;;;;-3.46;84.99;101441.13;5000945;28;20037;-71
2022/03/05 05:03:39;;;;;;;10.93;6.90;;;;;;;-3.48;85.03;101440.13;5003938;28;20038;-71
2022/03/05 05:06:06;;;;;;;12.20;6.70;;;;;;;-3.54;84.08;101451.88;5000796;28;20049;-72
2022/03/05 05:08:32;;;;;;;11.17;5.57;;;;;;;-3.63;83.86;101451.25;5003049;28;20404;-71
2022/03/05 05:10:57;;;;;;;9.30;5.67;;;;;;;-3.71;84.24;101449.00;4999521;28;20046;-71
2022/03/05 05:13:22;;;;;;;11.90;5.53;;;;;;;-3.80;84.55;101457.91;5001881;28;20066;-71
2022/03/05 05:15:48;;;;;;;13.53;5.80;;;;;;;-3.83;84.14;101452.53;5001547;28;20042;-71
2022/03/05 05:18:13;;;;;;;14.00;5.90;;;;;;;-3.82;84.73;101453.44;4999564;28;20039;-72
2022/03/05 05:20:39;;;;;;;12.40;6.83;;;;;;;-3.79;85.54;101449.38;5002532;28;20061;-72
2022/03/05 05:23:05;;;;;;;10.63;5.33;;;;;;;-3.80;85.29;101452.75;5006732;28;20061;-72
2022/03/05 05:25:30;;;;;;;10.77;5.47;;;;;;;-3.83;85.93;101454.22;5007890;28;20042;-72
2022/03/05 05:27:56;;;;;;;9.20;5.10;;;;;;;-3.86;85.07;101454.91;5004323;28;20034;-72
2022/03/05 05:30:21;;;;;;;12.20;5.27;;;;;;;-3.87;85.74;101454.81;5009569;28;20113;-72
2022/03/05 05:32:46;;;;;;;9.30;5.27;;;;;;;-3.87;85.35;101460.88;5007373;28;20048;-71
2022/03/05 05:35:12;;;;;;;11.97;6.03;;;;;;;-3.87;84.95;101457.41;4999969;28;20037;-74
2022/03/05 05:37:37;;;;;;;12.97;5.67;;;;;;;-3.83;85.39;101462.84;5013080;28;20073;-71
2022/03/05 05:40:03;;;;;;;12.30;6.23;;;;;;;-3.84;85.25;101466.22;5001573;28;20083;-71
2022/03/05 05:42:29;;;;;;;10.93;6.43;;;;;;;-3.83;85.76;101462.84;5009564;28;20038;-71
2022/03/05 05:44:54;;;;;;;12.07;6.13;;;;;;;-3.80;85.31;101465.66;5009644;28;20450;-71
2022/03/05 05:47:20;;;;;;;12.40;6.30;;;;;;;-3.81;85.63;101471.59;5004884;28;20034;-71
2022/03/05 05:49:46;;;;;;;11.63;7.00;;;;;;;-3.83;84.97;101468.00;5001969;28;20407;-72
2022/03/05 05:52:12;;;;;;;10.50;5.90;;;;;;;-3.79;85.61;101469.13;4998852;28;20033;-72
2022/03/05 05:54:38;;;;;;;11.90;6.33;;;;;;;-3.76;84.89;101474.47;5001827;28;20042;-72
2022/03/05 05:57:04;;;;;;;13.10;6.77;;;;;;;-3.73;85.08;101474.66;5000270;28;20041;-72
2022/03/05 05:59:29;;;;;;;10.63;6.30;;;;;;;-3.70;85.40;101477.44;5000187;28;20080;-71
2022/03/05 06:01:56;;;;;;;12.57;6.37;;;;;;;-3.67;84.84;101475.06;5016457;28;20060;-72
2022/03/05 06:04:21;;;;;;;13.50;8.07;;;;;;;-3.63;84.22;101477.06;4999190;28;20048;-71
2022/03/05 06:06:46;;;;;;;13.10;6.47;;;;;;;-3.62;84.57;101478.84;5021395;28;20066;-72
2022/03/05 06:09:12;;;;;;;11.87;5.80;;;;;;;-3.64;84.16;101470.13;5043037;28;20104;-72
2022/03/05 06:11:38;;;;;;;11.57;6.97;;;;;;;-3.64;83.96;101470.13;5041922;28;20113;-71
2022/03/05 06:14:05;;;;;;;8.17;4.83;;;;;;;-3.65;83.70;101473.50;5003336;28;20120;-71
2022/03/05 06:16:31;;;;;;;9.77;5.93;;;;;;;-3.62;83.91;101481.41;4999220;28;20380;-71
2022/03/05 06:18:56;;;;;;;11.77;4.80;;;;;;;-3.61;83.98;101475.50;5012468;28;20042;-71
2022/03/05 06:21:22;;;;;;;11.07;5.87;;;;;;;-3.58;83.77;101478.25;5000657;28;20124;-71
2022/03/05 06:23:47;;;;;;;11.20;5.93;;;;;;;-3.50;84.01;101485.63;4998769;28;20129;-72
2022/03/05 06:26:12;;;;;;;11.13;5.77;;;;;;;-3.44;84.01;101480.84;4998766;28;20070;-72
2022/03/05 06:28:37;;;;;;;9.97;5.47;;;;;;;-3.37;84.30;101483.06;5000865;28;20045;-71
2022/03/05 06:31:04;;;;;;;11.77;6.40;;;;;;;-3.32;83.47;101489.41;4999869;28;20061;-72
2022/03/05 06:33:29;;;;;;;12.37;6.70;;;;;;;-3.21;83.81;101495.25;4999155;28;20038;-72
2022/03/05 06:35:55;;;;;;;15.53;7.33;;;;;;;-3.13;84.38;101487.19;5001535;28;20087;-71
2022/03/05 06:38:21;;;;;;;12.60;7.03;;;;;;;-3.04;83.34;101483.41;4999947;28;20169;-71
2022/03/05 06:40:46;;;;;;;10.23;6.30;;;;;;;-2.96;83.73;101489.97;5002054;28;20488;-72
2022/03/05 06:43:12;;;;;;;8.90;5.60;;;;;;;-2.85;84.26;101486.38;5004986;28;20064;-72
2022/03/05 06:45:37;;;;;;;13.67;6.53;;;;;;;-2.77;83.94;101492.94;5023520;28;20090;-72
2022/03/05 06:48:04;;;;;;;12.93;7.20;;;;;;;-2.68;84.27;101498.66;5021122;28;20074;-72
2022/03/05 06:50:29;;;;;;;14.13;7.20;;;;;;;-2.56;84.87;101497.66;5019287;28;20046;-73
2022/03/05 06:52:54;;;;;;;11.03;6.27;;;;;;;-2.45;83.97;101491.44;5017657;28;20042;-72
2022/03/05 06:55:20;;;;;;;12.80;6.97;;;;;;;-2.34;84.47;101500.75;4999086;28;20041;-72
2022/03/05 06:57:45;;;;;;;12.43;6.20;;;;;;;-2.25;84.29;101501.31;5001854;28;20048;-72
2022/03/05 07:00:13;;;;;;;16.67;6.90;;;;;;;-2.15;84.14;101496.69;5001335;28;20046;-72
2022/03/05 07:02:39;;;;;;;12.30;6.07;;;;;;;-2.06;84.34;101497.25;4999235;28;20034;-72
2022/03/05 07:05:05;;;;;;;14.17;6.87;;;;;;;-1.95;84.39;101496.19;4979686;28;20103;-72
2022/03/05 07:07:30;;;;;;;10.43;5.17;;;;;;;-1.84;84.36;101504.59;5000261;28;20053;-72
2022/03/05 07:09:56;;;;;;;15.57;7.40;;;;;;;-1.80;84.38;101488.47;4998584;28;20053;-72
2022/03/05 07:12:21;;;;;;;12.67;6.17;;;;;;;-1.71;83.80;101491.56;4999476;28;20713;-72
2022/03/05 07:14:48;;;;;;;11.73;6.63;;;;;;;-1.62;83.87;101501.59;5015140;28;20038;-72
2022/03/05 07:17:16;;;;;;;18.70;7.20;;;;;;;-1.51;83.00;101500.50;5001016;28;20503;-71
2022/03/05 07:19:41;;;;;;;15.00;6.93;;;;;;;-1.38;83.41;101497.81;5013530;28;20073;-72
2022/03/05 07:22:07;;;;;;;14.30;7.33;;;;;;;-1.24;83.24;101496.00;4999092;28;20053;-72
2022/03/05 07:24:32;;;;;;;11.30;6.20;;;;;;;-1.10;83.78;101496.81;5004284;28;20065;-72
2022/03/05 07:26:58;;;;;;;13.03;6.70;;;;;;;-0.96;83.39;101497.56;5000108;28;20030;-72
2022/03/05 07:29:23;;;;;;;12.40;6.27;;;;;;;-0.84;83.25;101497.34;4997619;28;20453;-73
2022/03/05 07:31:48;;;;;;;12.67;7.00;;;;;;;-0.73;83.19;101501.44;4999604;28;20448;-72
2022/03/05 07:34:14;;;;;;;11.37;6.50;;;;;;;-0.63;83.39;101498.53;4999270;28;20404;-72
2022/03/05 07:36:39;;;;;;;12.53;6.33;;;;;;;-0.49;83.16;101494.09;4998268;28;20408;-73
2022/03/05 07:39:07;;;;;;;12.33;7.03;;;;;;;-0.35;82.48;101500.91;5018738;28;20115;-74
2022/03/05 07:41:33;;;;;;;13.00;6.77;;;;;;;-0.25;82.58;101499.69;5019812;28;20108;-72
2022/03/05 07:43:58;;;;;;;18.93;7.20;;;;;;;-0.17;82.23;101501.00;5021228;28;20561;-72
2022/03/05 07:46:23;;;;;;;12.77;6.90;;;;;;;-0.07;81.69;101507.56;5003604;28;20121;-72
2022/03/05 07:48:49;;;;;;;10.27;5.93;;;;;;;0.02;81.71;101507.16;5011773;28;20038;-72
2022/03/05 07:51:14;;;;;;;14.13;6.77;;;;;;;0.11;81.91;101502.44;5000108;28;20038;-72
2022/03/05 07:53:39;;;;;;;11.33;6.67;;;;;;;0.23;81.99;101513.44;5013330;28;20062;-72
2022/03/05 07:56:05;;;;;;;13.23;6.37;;;;;;;0.31;81.08;101506.03;5019004;28;20059;-72
2022/03/05 07:58:30;;;;;;;11.97;6.40;;;;;;;0.39;80.13;101509.91;5001670;28;20069;-73
2022/03/05 08:00:58;;;;;;;8.43;5.17;;;;;;;0.44;80.01;101513.63;5018407;28;20064;-72
2022/03/05 08:03:23;;;;;;;10.60;5.70;;;;;;;0.55;80.82;101509.91;5001771;28;20069;-72
2022/03/05 08:05:49;;;;;;;9.15;5.43;;;;;;;0.66;80.72;101507.84;4998733;28;20065;-72
2022/03/05 08:08:14;;;;;;;11.37;5.87;;;;;;;0.76;80.18;101502.28;4997841;28;20476;-72
2022/03/05 08:10:39;;;;;;;9.57;5.88;;;;;;;0.83;80.07;101509.53;5000221;28;20034;-73
2022/03/05 08:13:05;;;;;;;12.73;5.83;;;;;;;0.91;79.88;101509.91;4996793;28;20053;-73
2022/03/05 08:15:30;;;;;;;11.10;5.50;;;;;;;0.97;79.19;101507.63;5000919;28;20042;-72
2022/03/05 08:17:58;;;;;;;11.80;5.95;;;;;;;1.06;78.87;101513.25;4996240;28;20052;-73
2022/03/05 08:20:26;;;;;;;9.88;5.95;;;;;;;1.17;79.17;101511.16;4998252;28;20045;-73
2022/03/05 08:22:52;;;;;;;9.48;5.53;;;;;;;1.26;78.81;101505.53;5025647;28;20059;-72
2022/03/05 08:25:19;;;;;;;11.48;7.22;;;;;;;1.35;78.99;101510.25;5008873;28;20042;-73
2022/03/05 08:27:44;;;;;;;12.73;6.93;;;;;;;1.42;78.47;101508.00;4998471;28;20506;-72
2022/03/05 08:30:10;;;;;;;9.63;6.28;;;;;;;1.49;78.34;101504.88;4999644;28;20022;-73
2022/03/05 08:32:36;;;;;;;11.38;6.45;;;;;;;1.55;77.68;101514.69;5005249;28;20070;-72
2022/03/05 08:35:03;;;;;;;10.27;6.03;;;;;;;1.63;77.83;101509.84;5009646;28;20099;-72
2022/03/05 08:37:29;;;;;;;12.18;7.00;;;;;;;1.67;77.84;101519.53;4996698;28;20033;-72
2022/03/05 08:39:54;;;;;;;12.75;7.18;;;;;;;1.70;76.73;101515.38;5010194;28;20036;-73
2022/03/05 08:42:20;;;;;;;12.43;6.75;;;;;;;1.77;77.42;101516.53;5007724;28;20120;-73
2022/03/05 08:44:46;;;;;;;10.95;6.75;;;;;;;1.86;76.62;101516.03;5009436;28;20040;-72
2022/03/05 08:47:11;;;;;;;13.13;6.80;;;;;;;1.87;76.80;101513.53;5010011;28;20448;-73
2022/03/05 08:49:36;;;;;;;11.75;6.68;;;;;;;1.94;76.63;101510.38;5004656;28;20091;-72
2022/03/05 08:52:02;;;;;;;14.68;6.25;;;;;;;2.04;76.96;101516.88;5000848;28;20539;-72
2022/03/05 08:54:28;;;;;;;10.05;5.97;;;;;;;2.10;76.57;101517.16;5005898;28;20026;-72
2022/03/05 08:56:53;;;;;;;11.32;6.22;;;;;;;2.19;76.06;101519.25;5005108;28;20041;-72
2022/03/05 08:59:19;;;;;;;12.13;6.00;;;;;;;2.25;76.15;101516.03;5006718;28;20040;-72
2022/03/05 09:01:45;;;;;;;8.88;6.30;;;;;;;2.32;75.77;101513.75;5007658;28;20072;-72
2022/03/05 09:04:10;;;;;;;11.55;7.63;;;;;;;2.41;75.89;101514.16;5007452;28;20145;-73
2022/03/05 09:06:38;;;;;;;12.50;6.38;;;;;;;2.49;76.14;101517.09;5006892;28;20590;-72
2022/03/05 09:09:04;;;;;;;14.73;7.40;;;;;;;2.58;75.96;101512.25;5005911;28;20094;-74
2022/03/05 09:11:29;;;;;;;11.60;7.68;;;;;;;2.63;76.03;101510.72;5004858;28;20041;-73
2022/03/05 09:13:54;;;;;;;15.77;7.75;;;;;;;2.73;75.42;101521.56;5026206;28;20031;-73
2022/03/05 09:16:20;;;;;;;23.85;13.93;;;;;;;2.83;75.13;101518.50;5011158;28;20034;-72
2022/03/05 09:18:45;;;;;;;19.80;11.13;;;;;;;2.84;75.15;101517.66;5034918;27;20030;-72
2022/03/05 09:21:11;;;;;;;13.15;8.55;;;;;;;2.89;74.88;101510.94;5043232;28;20045;-71
2022/03/05 09:23:36;;;;;;;13.98;6.50;;;;;;;2.93;75.07;101512.81;4999734;28;20038;-72
2022/03/05 09:26:03;;;;;;;10.68;6.28;;;;;;;2.94;74.99;101516.34;5002425;28;20480;-75
2022/03/05 09:28:28;;;;;;;10.60;6.57;;;;;;;2.96;75.27;101512.97;5004129;28;20034;-76
2022/03/05 09:30:53;;;;;;;13.38;6.30;;;;;;;3.03;74.53;101506.25;5016094;28;20052;-73
2022/03/05 09:33:22;;;;;;;12.40;7.25;;;;;;;3.06;74.30;101512.47;5002226;28;20033;-73
2022/03/05 09:35:51;;;;;;;10.50;7.13;;;;;;;3.11;73.68;101507.44;5002783;28;20045;-73
2022/03/05 09:38:17;;;;;;;16.33;8.20;;;;;;;3.07;73.50;101513.38;5008414;28;20041;-72
2022/03/05 09:40:42;;;;;;;13.60;7.47;;;;;;;3.12;73.79;101506.63;5019540;28;20030;-72
2022/03/05 09:43:09;;;;;;;12.27;6.70;;;;;;;3.22;73.62;101500.97;5018031;28;20042;-72
2022/03/05 09:45:34;;;;;;;11.75;6.75;;;;;;;3.31;73.15;101495.19;5001553;28;20042;-72
2022/03/05 09:48:03;;;;;;;13.07;7.18;;;;;;;3.34;72.80;101497.91;5013997;28;20034;-72
2022/03/05 09:50:29;;;;;;;13.00;7.82;;;;;;;3.42;72.87;101490.38;5001078;28;20095;-72
2022/03/05 09:52:59;;;;;;;12.95;6.88;;;;;;;3.49;72.47;101505.47;4998995;28;20194;-72
2022/03/05 09:55:25;;;;;;;14.93;7.25;;;;;;;3.41;72.01;101499.06;5001134;28;20030;-72
2022/03/05 09:57:50;;;;;;;13.30;7.05;;;;;;;3.36;71.86;101498.00;5004443;28;20041;-72
2022/03/05 10:00:16;;;;;;;14.23;7.38;;;;;;;3.35;71.96;101496.19;4999537;28;20035;-72
2022/03/05 10:02:45;;;;;;;12.77;7.25;;;;;;;3.37;71.69;101498.03;5001683;28;20492;-72
2022/03/05 10:05:15;;;;;;;12.25;8.00;;;;;;;3.45;71.53;101501.81;4998844;28;20415;-72
2022/03/05 10:08:08;;;;;;;12.48;7.03;;;;;;;3.53;71.51;101503.84;4999331;28;20037;-72
2022/03/05 10:10:39;;;;;;;;;;;;;;;3.55;71.43;101503.06;5002423;28;20029;-72
2022/03/05 10:13:20;;;;;;;10.32;6.18;;;;;;;3.72;71.54;101501.06;4999853;28;19941;-72
2022/03/05 10:15:46;;;;;;;12.38;6.82;;;;;;;3.79;70.91;101495.25;4999301;28;20030;-72
2022/03/05 10:18:12;;;;;;;12.23;7.43;;;;;;;3.88;70.98;101497.34;4998657;28;20534;-72
2022/03/05 10:20:50;;;;;;;13.18;7.60;;;;;;;3.87;70.33;101498.16;4999716;28;20126;-72
2022/03/05 10:23:17;;;;;;;12.02;7.05;;;;;;;3.82;70.33;101494.47;4999548;28;20038;-72
2022/03/05 10:25:45;;;;;;;10.40;6.88;;;;;;;3.86;70.11;101497.28;4999875;28;20125;-72
2022/03/05 10:28:16;;;;;;;12.38;6.88;;;;;;;4.09;69.68;101498.09;5001796;28;20048;-72
2022/03/05 10:30:47;;;;;;;15.05;7.47;;;;;;;4.27;69.42;101492.66;4999321;28;20038;-72
2022/03/05 10:33:32;;;;;;;12.25;5.85;;;;;;;4.60;68.35;101498.13;4998985;28;20038;-72
2022/03/05 10:36:00;;;;;;;11.70;6.60;;;;;;;4.89;67.50;101492.06;5000793;28;20033;-72
2022/03/05 10:38:48;;;;;;;12.65;7.72;;;;;;;5.13;67.62;101485.00;4998560;28;20038;-72
2022/03/05 10:41:17;;;;;;;14.02;7.82;;;;;;;5.34;67.42;101489.13;5002646;28;20086;-72
2022/03/05 10:43:44;;;;;;;9.40;6.68;;;;;;;5.47;66.75;101488.63;5014683;28;20059;-72
2022/03/05 10:46:09;;;;;;;12.15;6.60;;;;;;;5.65;65.81;101483.06;5000741;28;20045;-72
2022/03/05 10:48:36;;;;;;;11.73;6.82;;;;;;;5.73;65.97;101484.16;4998331;28;20034;-72
2022/03/05 10:51:08;;;;;;;13.57;7.47;;;;;;;5.87;65.36;101482.84;4996784;28;20519;-72
2022/03/05 10:53:39;;;;;;;12.38;7.28;;;;;;;6.00;65.08;101475.34;4999587;28;20048;-72
2022/03/05 10:56:23;;;;;;;11.13;6.60;;;;;;;6.08;64.19;101476.47;5001623;28;20035;-72
2022/03/05 10:59:09;;;;;;;12.88;6.68;;;;;;;6.10;63.34;101475.66;4998653;28;20026;-72
2022/03/05 11:01:44;;;;;;;11.05;7.25;;;;;;;6.03;64.36;101471.09;4999562;28;20038;-72
2022/03/05 11:04:11;;;;;;;14.73;7.13;;;;;;;6.13;63.85;101465.25;4997814;28;20103;-71
2022/03/05 11:06:44;;;;;;;13.45;8.93;;;;;;;6.14;62.25;101455.66;4999024;28;20050;-72
2022/03/05 11:09:11;;;;;;;13.38;8.40;;;;;;;6.17;63.33;101460.09;4998082;28;20038;-72
2022/03/05 11:11:42;;;;;;;14.75;9.38;;;;;;;6.28;63.47;101459.50;4999557;28;20034;-72
2022/03/05 11:14:13;;;;;;;14.05;8.23;;;;;;;6.40;62.11;101458.97;5000615;28;20049;-72
2022/03/05 11:16:39;;;;;;;11.55;8.15;;;;;;;6.53;62.00;101455.78;4997266;28;20041;-72
2022/03/05 11:19:04;;;;;;;14.88;9.32;;;;;;;6.65;61.57;101449.06;4999175;28;20030;-72
2022/03/05 11:21:30;;;;;;;14.10;8.88;;;;;;;6.77;60.78;101447.63;4998373;28;20069;-72